Time;durP1;ratioP1;P1;durP2;ratioP2;P2;SDS_P1;SDS_P2;PMS_P1;PMS_P2;Temp;Humidity;BMP_temperature;BMP_pressure;BME280_temperature;BME280_humidity;BME280_pressure;Samples;Min_cycle;Max_cycle;Signal;HPM_P1;HPM_P2
2023/01/14 00:00:09;;;;;;;13.80;3.20;;;;;;;;;;520947;28;1624;-65
2023/01/14 00:00:25;;;;;;;17.08;3.58;;;;;;;;;;521169;28;1470;-65
2023/01/14 00:00:40;;;;;;;17.58;3.50;;;;;;;;;;520740;28;1161;-65
2023/01/14 00:01:08;;;;;;;16.10;3.50;;;;;;;;;;520362;28;1157;-64
2023/01/14 00:01:28;;;;;;;14.60;3.45;;;;;;;;;;520336;28;1291;-64
2023/01/14 00:01:44;;;;;;;16.67;3.67;;;;;;;;;;521680;28;1372;-65
2023/01/14 00:01:59;;;;;;;16.77;3.78;;;;;;;;;;522539;28;1212;-65
2023/01/14 00:02:14;;;;;;;12.93;3.30;;;;;;;;;;525497;28;982;-65
2023/01/14 00:02:32;;;;;;;12.93;3.23;;;;;;;;;;525686;28;1132;-64
2023/01/14 00:02:48;;;;;;;15.23;3.47;;;;;;;;;;522246;28;1255;-65
2023/01/14 00:03:03;;;;;;;14.15;3.33;;;;;;;;;;522449;28;1094;-65
2023/01/14 00:03:18;;;;;;;13.13;3.17;;;;;;;;;;523134;28;1388;-65
2023/01/14 00:03:34;;;;;;;11.33;2.83;;;;;;;;;;523491;28;1486;-65
2023/01/14 00:03:49;;;;;;;12.80;3.25;;;;;;;;;;523043;28;1270;-65
2023/01/14 00:04:04;;;;;;;13.77;3.60;;;;;;;;;;525283;28;1110;-65
2023/01/14 00:04:20;;;;;;;14.38;3.60;;;;;;;;;;522749;28;1345;-65
2023/01/14 00:04:35;;;;;;;15.93;3.67;;;;;;;;;;523163;28;1049;-65
2023/01/14 00:04:50;;;;;;;15.20;3.50;;;;;;;;;;522212;28;1304;-65
2023/01/14 00:05:06;;;;;;;13.97;3.40;;;;;;;;;;522384;28;1273;-65
2023/01/14 00:05:21;;;;;;;14.77;3.22;;;;;;;;;;523549;28;953;-65
2023/01/14 00:05:36;;;;;;;14.63;3.13;;;;;;;;;;522150;28;1349;-65
2023/01/14 00:05:56;;;;;;;14.10;3.10;;;;;;;;;;524549;28;1097;-65
2023/01/14 00:06:14;;;;;;;13.57;2.95;;;;;;;;;;523153;28;1137;-65
2023/01/14 00:06:32;;;;;;;12.25;2.92;;;;;;;;;;523443;28;1395;-65
2023/01/14 00:06:47;;;;;;;15.13;3.38;;;;;;;;;;524692;28;1169;-65
2023/01/14 00:07:02;;;;;;;18.60;3.83;;;;;;;;;;522075;28;1343;-64
2023/01/14 00:07:18;;;;;;;18.48;3.72;;;;;;;;;;522891;28;1427;-64
2023/01/14 00:07:33;;;;;;;17.70;3.53;;;;;;;;;;524622;28;1495;-65
2023/01/14 00:07:48;;;;;;;16.60;3.50;;;;;;;;;;525607;28;1317;-65
2023/01/14 00:08:04;;;;;;;16.10;3.60;;;;;;;;;;525584;28;1097;-65
2023/01/14 00:08:19;;;;;;;15.82;3.72;;;;;;;;;;525452;28;1081;-65
2023/01/14 00:08:34;;;;;;;15.13;3.53;;;;;;;;;;522875;28;1320;-65
2023/01/14 00:08:54;;;;;;;15.30;3.35;;;;;;;;;;523509;28;1089;-64
2023/01/14 00:09:12;;;;;;;16.20;3.50;;;;;;;;;;522965;28;1319;-65
2023/01/14 00:09:29;;;;;;;14.00;3.28;;;;;;;;;;525094;28;962;-64
2023/01/14 00:09:45;;;;;;;11.23;2.95;;;;;;;;;;524713;28;1971;-65
2023/01/14 00:10:00;;;;;;;8.77;2.50;;;;;;;;;;521622;28;1398;-65
2023/01/14 00:10:16;;;;;;;10.65;2.70;;;;;;;;;;522785;28;1177;-64
2023/01/14 00:10:31;;;;;;;14.90;3.50;;;;;;;;;;523795;28;1215;-65
2023/01/14 00:10:47;;;;;;;17.13;3.83;;;;;;;;;;525026;28;1148;-65
2023/01/14 00:11:04;;;;;;;17.80;3.80;;;;;;;;;;522502;28;1277;-65
2023/01/14 00:11:45;;;;;;;13.68;3.15;;;;;;;;;;521845;28;1520;-65
2023/01/14 00:11:54;;;;;;;12.50;3.20;;;;;;;;;;523536;28;1233;-64
2023/01/14 00:12:10;;;;;;;14.83;3.40;;;;;;;;;;525230;28;1149;-65
2023/01/14 00:12:25;;;;;;;14.90;3.70;;;;;;;;;;524193;28;1109;-65
2023/01/14 00:12:41;;;;;;;11.80;3.30;;;;;;;;;;525423;28;1029;-65
2023/01/14 00:12:56;;;;;;;12.23;3.13;;;;;;;;;;524004;28;1382;-64
2023/01/14 00:13:11;;;;;;;11.60;3.10;;;;;;;;;;522761;28;1173;-64
2023/01/14 00:13:26;;;;;;;11.38;3.20;;;;;;;;;;524748;28;1058;-65
2023/01/14 00:13:42;;;;;;;12.33;3.27;;;;;;;;;;524638;28;1163;-65
2023/01/14 00:13:58;;;;;;;13.38;3.15;;;;;;;;;;526113;28;1174;-65
2023/01/14 00:14:17;;;;;;;14.37;3.30;;;;;;;;;;523276;28;1424;-65
2023/01/14 00:14:32;;;;;;;15.70;3.65;;;;;;;;;;522210;28;1544;-65
2023/01/14 00:14:48;;;;;;;17.30;3.83;;;;;;;;;;523848;28;1034;-64
2023/01/14 00:15:03;;;;;;;17.67;3.63;;;;;;;;;;524419;28;1301;-64
2023/01/14 00:15:19;;;;;;;16.65;3.47;;;;;;;;;;522324;28;1308;-64
2023/01/14 00:15:34;;;;;;;15.90;3.58;;;;;;;;;;523504;28;1090;-64
2023/01/14 00:15:52;;;;;;;14.53;3.43;;;;;;;;;;521637;28;1114;-64
2023/01/14 00:16:13;;;;;;;13.50;3.10;;;;;;;;;;523114;28;1129;-64
2023/01/14 00:16:28;;;;;;;12.95;3.00;;;;;;;;;;521384;28;1401;-65
2023/01/14 00:16:44;;;;;;;15.77;3.45;;;;;;;;;;520776;28;1231;-64
2023/01/14 00:17:00;;;;;;;16.27;3.50;;;;;;;;;;520477;28;1162;-65
2023/01/14 00:17:16;;;;;;;15.27;3.40;;;;;;;;;;523270;28;1160;-65
2023/01/14 00:17:31;;;;;;;16.77;3.60;;;;;;;;;;523455;28;1248;-65
2023/01/14 00:17:47;;;;;;;15.93;3.57;;;;;;;;;;520742;28;1421;-64
2023/01/14 00:18:04;;;;;;;13.68;3.22;;;;;;;;;;520128;28;1380;-64
2023/01/14 00:18:19;;;;;;;13.15;3.30;;;;;;;;;;518178;28;1499;-65
2023/01/14 00:18:36;;;;;;;15.55;3.50;;;;;;;;;;521490;28;1140;-65
2023/01/14 00:18:51;;;;;;;12.90;3.03;;;;;;;;;;520385;28;1661;-65
2023/01/14 00:19:06;;;;;;;11.07;2.90;;;;;;;;;;521475;28;1199;-64
2023/01/14 00:19:23;;;;;;;13.37;3.07;;;;;;;;;;519701;28;1197;-64
2023/01/14 00:19:39;;;;;;;14.32;3.28;;;;;;;;;;518816;28;1431;-64
2023/01/14 00:19:54;;;;;;;15.60;3.60;;;;;;;;;;517773;28;1315;-64
2023/01/14 00:20:09;;;;;;;16.17;3.88;;;;;;;;;;517875;28;1122;-65
2023/01/14 00:20:27;;;;;;;15.43;3.80;;;;;;;;;;518599;28;987;-65
2023/01/14 00:20:43;;;;;;;14.63;3.42;;;;;;;;;;517846;28;1497;-64
2023/01/14 00:20:59;;;;;;;14.45;3.50;;;;;;;;;;516930;28;1342;-64
2023/01/14 00:21:15;;;;;;;14.95;3.67;;;;;;;;;;518082;28;1304;-65
2023/01/14 00:21:30;;;;;;;17.92;3.75;;;;;;;;;;518527;28;1598;-64
2023/01/14 00:21:46;;;;;;;19.20;3.70;;;;;;;;;;519423;28;1390;-64
2023/01/14 00:22:01;;;;;;;16.83;3.80;;;;;;;;;;518491;28;1309;-64
2023/01/14 00:22:16;;;;;;;13.70;3.40;;;;;;;;;;518791;28;1289;-65
2023/01/14 00:22:32;;;;;;;10.80;2.87;;;;;;;;;;517848;28;1330;-65
2023/01/14 00:22:47;;;;;;;9.82;2.67;;;;;;;;;;518969;28;1441;-65
2023/01/14 00:23:02;;;;;;;13.70;2.97;;;;;;;;;;518189;28;1511;-65
2023/01/14 00:23:18;;;;;;;15.37;3.23;;;;;;;;;;519002;28;1300;-65
2023/01/14 00:23:34;;;;;;;16.50;3.40;;;;;;;;;;521758;28;1196;-65
2023/01/14 00:23:53;;;;;;;16.73;3.45;;;;;;;;;;523781;28;1636;-66
2023/01/14 00:24:08;;;;;;;15.85;3.53;;;;;;;;;;522390;28;1544;-65
2023/01/14 00:24:24;;;;;;;17.13;3.93;;;;;;;;;;523137;28;1303;-65
2023/01/14 00:24:40;;;;;;;17.90;4.13;;;;;;;;;;522871;28;1226;-65
2023/01/14 00:24:55;;;;;;;16.17;3.70;;;;;;;;;;525697;28;1365;-65
2023/01/14 00:25:11;;;;;;;14.83;3.40;;;;;;;;;;526728;27;1445;-65
2023/01/14 00:25:26;;;;;;;15.40;3.25;;;;;;;;;;525004;27;1230;-65
2023/01/14 00:25:41;;;;;;;16.50;3.33;;;;;;;;;;526983;27;1325;-65
2023/01/14 00:26:13;;;;;;;17.83;3.50;;;;;;;;;;524884;28;1471;-65
2023/01/14 00:26:28;;;;;;;15.57;3.70;;;;;;;;;;524429;28;1533;-65
2023/01/14 00:26:43;;;;;;;15.40;3.63;;;;;;;;;;521577;28;1273;-66
2023/01/14 00:26:58;;;;;;;14.27;3.27;;;;;;;;;;520708;28;1363;-65
2023/01/14 00:27:15;;;;;;;13.10;3.17;;;;;;;;;;522845;28;1373;-65
2023/01/14 00:27:30;;;;;;;13.48;3.05;;;;;;;;;;522393;28;1332;-65
2023/01/14 00:27:45;;;;;;;12.80;3.27;;;;;;;;;;523732;28;1207;-65
2023/01/14 00:28:01;;;;;;;13.73;3.45;;;;;;;;;;522857;28;1327;-65
2023/01/14 00:28:16;;;;;;;16.23;3.77;;;;;;;;;;518927;28;1328;-65
2023/01/14 00:28:31;;;;;;;16.80;3.90;;;;;;;;;;523368;28;1207;-65
2023/01/14 00:28:48;;;;;;;16.50;3.58;;;;;;;;;;523041;28;1421;-65
2023/01/14 00:29:04;;;;;;;16.73;3.40;;;;;;;;;;519191;28;1390;-65
2023/01/14 00:29:26;;;;;;;16.93;3.53;;;;;;;;;;518489;28;1343;-65
2023/01/14 00:29:41;;;;;;;16.45;3.55;;;;;;;;;;518275;28;1981;-65
2023/01/14 00:29:56;;;;;;;17.80;3.60;;;;;;;;;;518491;28;1277;-66
2023/01/14 00:30:12;;;;;;;18.20;3.67;;;;;;;;;;519345;28;1247;-66
2023/01/14 00:30:27;;;;;;;14.90;3.50;;;;;;;;;;520407;28;1503;-65
2023/01/14 00:30:42;;;;;;;14.67;3.33;;;;;;;;;;519490;28;1223;-65
2023/01/14 00:31:10;;;;;;;15.90;3.47;;;;;;;;;;520087;28;1545;-65
2023/01/14 00:31:27;;;;;;;14.45;3.40;;;;;;;;;;522249;28;1284;-65
2023/01/14 00:31:43;;;;;;;17.83;4.07;;;;;;;;;;523884;28;1525;-65
2023/01/14 00:32:00;;;;;;;18.15;4.20;;;;;;;;;;523406;28;1576;-65
2023/01/14 00:32:16;;;;;;;16.85;3.72;;;;;;;;;;524976;28;1172;-66
2023/01/14 00:32:31;;;;;;;16.10;3.80;;;;;;;;;;522657;28;1283;-65
2023/01/14 00:32:46;;;;;;;16.37;3.70;;;;;;;;;;522916;28;1338;-65
2023/01/14 00:33:01;;;;;;;17.10;3.70;;;;;;;;;;522763;28;1590;-65
2023/01/14 00:33:17;;;;;;;16.60;3.60;;;;;;;;;;522393;28;1462;-65
2023/01/14 00:33:33;;;;;;;13.90;3.17;;;;;;;;;;519922;28;1410;-65
2023/01/14 00:33:49;;;;;;;11.77;2.90;;;;;;;;;;518788;28;1171;-65
2023/01/14 00:34:04;;;;;;;14.02;3.20;;;;;;;;;;521512;28;1434;-65
2023/01/14 00:34:20;;;;;;;16.63;3.67;;;;;;;;;;521378;28;1510;-65
2023/01/14 00:34:36;;;;;;;14.73;3.50;;;;;;;;;;519206;28;1169;-65
2023/01/14 00:34:51;;;;;;;14.40;3.50;;;;;;;;;;520191;28;1174;-65
2023/01/14 00:35:07;;;;;;;14.27;3.53;;;;;;;;;;522281;28;1486;-65
2023/01/14 00:35:22;;;;;;;13.77;3.40;;;;;;;;;;522404;28;1128;-64
2023/01/14 00:35:37;;;;;;;15.18;3.53;;;;;;;;;;522882;28;1465;-65
2023/01/14 00:35:53;;;;;;;15.30;3.47;;;;;;;;;;522270;28;1259;-65
2023/01/14 00:36:12;;;;;;;15.02;3.40;;;;;;;;;;518848;28;1234;-65
2023/01/14 00:36:27;;;;;;;16.55;3.40;;;;;;;;;;520522;28;1426;-64
2023/01/14 00:36:45;;;;;;;17.07;3.50;;;;;;;;;;520706;28;1324;-65
2023/01/14 00:37:00;;;;;;;16.55;3.70;;;;;;;;;;520519;28;1685;-64
2023/01/14 00:37:16;;;;;;;15.20;3.67;;;;;;;;;;521133;28;1501;-65
2023/01/14 00:37:31;;;;;;;14.37;3.43;;;;;;;;;;522316;28;1150;-65
2023/01/14 00:37:46;;;;;;;13.70;3.17;;;;;;;;;;519645;28;1149;-66
2023/01/14 00:38:01;;;;;;;12.63;3.00;;;;;;;;;;522072;28;1231;-65
2023/01/14 00:38:17;;;;;;;13.80;3.33;;;;;;;;;;519150;28;1200;-66
2023/01/14 00:38:33;;;;;;;14.68;3.53;;;;;;;;;;520992;28;1201;-65
2023/01/14 00:38:48;;;;;;;14.50;3.50;;;;;;;;;;520929;28;1528;-65
2023/01/14 00:39:03;;;;;;;15.60;3.30;;;;;;;;;;518076;28;1303;-65
2023/01/14 00:39:19;;;;;;;15.30;3.00;;;;;;;;;;520902;28;1612;-65
2023/01/14 00:39:35;;;;;;;13.10;3.00;;;;;;;;;;520987;28;1285;-65
2023/01/14 00:39:50;;;;;;;12.77;3.20;;;;;;;;;;520490;28;1677;-65
2023/01/14 00:40:06;;;;;;;15.93;3.65;;;;;;;;;;519963;28;1339;-65
2023/01/14 00:40:21;;;;;;;18.35;3.78;;;;;;;;;;521137;28;1528;-65
2023/01/14 00:40:37;;;;;;;16.40;3.70;;;;;;;;;;520707;28;1263;-65
2023/01/14 00:41:20;;;;;;;15.38;3.58;;;;;;;;;;521782;28;1465;-65
2023/01/14 00:41:35;;;;;;;16.33;3.80;;;;;;;;;;516111;28;1805;-65
2023/01/14 00:41:51;;;;;;;16.33;3.70;;;;;;;;;;520924;28;1241;-65
2023/01/14 00:42:07;;;;;;;16.45;3.63;;;;;;;;;;522141;28;1409;-65
2023/01/14 00:42:22;;;;;;;17.25;3.70;;;;;;;;;;525737;28;1254;-65
2023/01/14 00:42:37;;;;;;;15.47;3.60;;;;;;;;;;527481;27;1433;-65
2023/01/14 00:42:52;;;;;;;13.97;3.53;;;;;;;;;;524587;28;1143;-65
2023/01/14 00:43:08;;;;;;;15.18;3.80;;;;;;;;;;524588;28;1556;-65
2023/01/14 00:43:23;;;;;;;17.43;4.30;;;;;;;;;;522749;28;1211;-65
2023/01/14 00:43:40;;;;;;;17.47;4.13;;;;;;;;;;523091;28;1513;-65
2023/01/14 00:43:58;;;;;;;14.10;3.38;;;;;;;;;;521822;28;1355;-65
2023/01/14 00:44:13;;;;;;;15.10;3.47;;;;;;;;;;523526;28;1248;-65
2023/01/14 00:44:29;;;;;;;12.88;3.25;;;;;;;;;;523971;28;1291;-65
2023/01/14 00:44:45;;;;;;;10.60;2.97;;;;;;;;;;525004;28;1436;-65
2023/01/14 00:45:00;;;;;;;11.63;2.80;;;;;;;;;;522223;28;1317;-65
2023/01/14 00:45:16;;;;;;;14.63;3.33;;;;;;;;;;520724;28;1218;-65
2023/01/14 00:45:31;;;;;;;14.43;3.60;;;;;;;;;;520692;28;1209;-65
2023/01/14 00:45:46;;;;;;;14.23;3.40;;;;;;;;;;519051;28;1545;-65
2023/01/14 00:46:02;;;;;;;14.93;3.40;;;;;;;;;;521224;28;1241;-65
2023/01/14 00:46:20;;;;;;;14.43;3.40;;;;;;;;;;520560;28;1402;-65
2023/01/14 00:46:37;;;;;;;14.27;3.50;;;;;;;;;;519757;28;1271;-65
2023/01/14 00:46:53;;;;;;;15.50;3.42;;;;;;;;;;522356;28;1304;-65
2023/01/14 00:47:08;;;;;;;16.13;3.50;;;;;;;;;;523019;28;1322;-65
2023/01/14 00:47:23;;;;;;;15.52;3.50;;;;;;;;;;526647;27;1291;-65
2023/01/14 00:47:39;;;;;;;15.33;3.40;;;;;;;;;;525079;27;1346;-65
2023/01/14 00:47:54;;;;;;;15.27;3.37;;;;;;;;;;525204;28;1264;-64
2023/01/14 00:48:09;;;;;;;15.63;3.30;;;;;;;;;;523014;28;1476;-64
2023/01/14 00:48:25;;;;;;;14.93;3.53;;;;;;;;;;522151;28;1318;-65
2023/01/14 00:48:41;;;;;;;16.40;3.63;;;;;;;;;;523566;28;1330;-65
2023/01/14 00:48:58;;;;;;;16.25;3.38;;;;;;;;;;522072;28;1312;-64
2023/01/14 00:49:16;;;;;;;12.80;3.35;;;;;;;;;;523440;28;1225;-65
2023/01/14 00:49:31;;;;;;;14.48;3.30;;;;;;;;;;524370;28;1239;-64
2023/01/14 00:49:47;;;;;;;16.33;3.37;;;;;;;;;;523851;28;1974;-65
2023/01/14 00:50:03;;;;;;;17.27;3.83;;;;;;;;;;528039;27;1242;-65
2023/01/14 00:50:19;;;;;;;15.77;3.80;;;;;;;;;;525669;27;1555;-65
2023/01/14 00:50:34;;;;;;;15.73;3.60;;;;;;;;;;527475;27;1232;-64
2023/01/14 00:50:50;;;;;;;16.10;3.70;;;;;;;;;;526572;27;1686;-63
2023/01/14 00:51:06;;;;;;;16.80;3.90;;;;;;;;;;526949;27;1266;-64
2023/01/14 00:51:21;;;;;;;18.20;3.80;;;;;;;;;;526041;28;1394;-64
2023/01/14 00:51:37;;;;;;;17.95;3.70;;;;;;;;;;525053;27;1170;-63
2023/01/14 00:51:52;;;;;;;17.83;3.73;;;;;;;;;;527102;27;1112;-65
2023/01/14 00:52:07;;;;;;;17.05;3.78;;;;;;;;;;526849;27;1184;-65
2023/01/14 00:52:23;;;;;;;16.03;3.67;;;;;;;;;;526819;27;1077;-65
2023/01/14 00:52:38;;;;;;;17.33;3.60;;;;;;;;;;527218;27;1124;-64
2023/01/14 00:52:53;;;;;;;17.67;3.72;;;;;;;;;;524702;28;1279;-64
2023/01/14 00:53:08;;;;;;;17.40;3.53;;;;;;;;;;525250;28;1183;-65
2023/01/14 00:53:24;;;;;;;16.50;3.47;;;;;;;;;;525110;28;1206;-66
2023/01/14 00:53:40;;;;;;;15.43;3.33;;;;;;;;;;524143;28;1118;-65
2023/01/14 00:53:56;;;;;;;16.30;3.50;;;;;;;;;;524668;28;1156;-64
2023/01/14 00:54:11;;;;;;;16.27;3.60;;;;;;;;;;525065;28;1161;-63
2023/01/14 00:54:27;;;;;;;15.35;3.33;;;;;;;;;;525006;28;1478;-65
2023/01/14 00:54:42;;;;;;;17.52;3.50;;;;;;;;;;522395;28;1213;-65
2023/01/14 00:54:57;;;;;;;17.77;3.77;;;;;;;;;;525758;28;1136;-65
2023/01/14 00:55:13;;;;;;;15.77;3.70;;;;;;;;;;524069;28;1261;-65
2023/01/14 00:55:28;;;;;;;17.02;3.50;;;;;;;;;;523063;28;1196;-65
2023/01/14 00:55:44;;;;;;;16.27;3.40;;;;;;;;;;525477;28;1125;-65
2023/01/14 00:55:59;;;;;;;15.25;3.70;;;;;;;;;;522071;28;1297;-64
2023/01/14 00:56:17;;;;;;;15.57;3.60;;;;;;;;;;523620;28;1133;-65
2023/01/14 00:56:32;;;;;;;15.57;3.63;;;;;;;;;;522150;28;1137;-65
2023/01/14 00:56:48;;;;;;;16.73;4.07;;;;;;;;;;521140;28;1296;-64
2023/01/14 00:57:03;;;;;;;17.63;3.97;;;;;;;;;;518984;28;1371;-64
2023/01/14 00:57:18;;;;;;;16.23;3.50;;;;;;;;;;519644;28;1358;-65
2023/01/14 00:57:33;;;;;;;14.77;3.40;;;;;;;;;;520074;28;1398;-65
2023/01/14 00:57:49;;;;;;;14.03;3.33;;;;;;;;;;520906;28;1252;-65
2023/01/14 00:58:04;;;;;;;13.93;3.20;;;;;;;;;;522898;28;1387;-64
2023/01/14 00:58:19;;;;;;;15.17;3.30;;;;;;;;;;524387;28;1205;-64
2023/01/14 00:58:35;;;;;;;14.40;3.40;;;;;;;;;;525138;28;1362;-65
2023/01/14 00:58:51;;;;;;;13.02;3.15;;;;;;;;;;524572;28;1230;-65
2023/01/14 00:59:15;;;;;;;13.57;3.10;;;;;;;;;;521078;28;1128;-64
2023/01/14 00:59:30;;;;;;;14.80;3.22;;;;;;;;;;523018;28;959;-64
2023/01/14 00:59:45;;;;;;;14.53;3.43;;;;;;;;;;523688;28;1122;-64
2023/01/14 01:00:00;;;;;;;15.40;3.53;;;;;;;;;;523335;28;1569;-65
2023/01/14 01:00:16;;;;;;;15.40;3.42;;;;;;;;;;520330;28;1246;-65
2023/01/14 01:00:31;;;;;;;15.67;3.43;;;;;;;;;;520642;28;1204;-65
2023/01/14 01:00:46;;;;;;;16.63;3.60;;;;;;;;;;521914;28;1290;-65
2023/01/14 01:01:02;;;;;;;16.10;3.60;;;;;;;;;;525268;28;1125;-65
2023/01/14 01:01:18;;;;;;;14.68;3.53;;;;;;;;;;524251;28;1216;-64
2023/01/14 01:01:33;;;;;;;14.55;3.67;;;;;;;;;;525341;28;1109;-65
2023/01/14 01:01:51;;;;;;;16.13;3.70;;;;;;;;;;524595;28;1118;-65
2023/01/14 01:02:07;;;;;;;14.63;3.38;;;;;;;;;;526452;27;1180;-64
2023/01/14 01:02:22;;;;;;;14.15;3.50;;;;;;;;;;526895;27;1297;-65
2023/01/14 01:02:37;;;;;;;14.23;3.50;;;;;;;;;;525643;27;1291;-64
2023/01/14 01:02:53;;;;;;;13.40;3.13;;;;;;;;;;525531;28;1179;-65
2023/01/14 01:03:08;;;;;;;15.40;3.30;;;;;;;;;;525812;28;1164;-64
2023/01/14 01:03:24;;;;;;;16.87;3.60;;;;;;;;;;523622;28;1199;-64
2023/01/14 01:03:42;;;;;;;15.52;3.45;;;;;;;;;;522979;28;1130;-65
2023/01/14 01:03:57;;;;;;;13.93;3.13;;;;;;;;;;523573;28;1289;-64
2023/01/14 01:04:13;;;;;;;15.27;3.28;;;;;;;;;;523620;28;1102;-64
2023/01/14 01:04:28;;;;;;;17.93;3.83;;;;;;;;;;521393;28;1487;-64
2023/01/14 01:04:43;;;;;;;18.33;3.90;;;;;;;;;;521459;28;1367;-64
2023/01/14 01:04:58;;;;;;;17.80;3.55;;;;;;;;;;520981;28;1301;-64
2023/01/14 01:05:14;;;;;;;18.33;3.60;;;;;;;;;;522558;28;1134;-64
2023/01/14 01:05:33;;;;;;;17.77;3.43;;;;;;;;;;521588;28;1176;-65
2023/01/14 01:05:49;;;;;;;17.25;3.35;;;;;;;;;;521394;28;2187;-64
2023/01/14 01:06:04;;;;;;;17.07;3.43;;;;;;;;;;520573;28;1253;-64
2023/01/14 01:06:22;;;;;;;15.25;3.47;;;;;;;;;;522396;28;1098;-65
2023/01/14 01:06:38;;;;;;;15.93;3.42;;;;;;;;;;520375;28;1546;-65
2023/01/14 01:06:53;;;;;;;17.13;3.43;;;;;;;;;;521503;28;1522;-64
2023/01/14 01:07:08;;;;;;;16.13;3.57;;;;;;;;;;519869;28;1322;-63
2023/01/14 01:07:24;;;;;;;14.18;3.50;;;;;;;;;;521255;28;1243;-64
2023/01/14 01:07:40;;;;;;;14.83;3.67;;;;;;;;;;521872;28;1161;-64
2023/01/14 01:07:56;;;;;;;15.77;3.70;;;;;;;;;;523404;28;1141;-65
2023/01/14 01:08:13;;;;;;;15.77;3.60;;;;;;;;;;520632;28;1268;-63
2023/01/14 01:08:29;;;;;;;14.43;3.13;;;;;;;;;;523542;28;1101;-64
2023/01/14 01:08:45;;;;;;;14.00;3.13;;;;;;;;;;523039;28;1159;-65
2023/01/14 01:09:01;;;;;;;15.87;3.50;;;;;;;;;;522018;28;1272;-65
2023/01/14 01:09:17;;;;;;;17.42;3.78;;;;;;;;;;523530;28;1062;-64
2023/01/14 01:09:33;;;;;;;15.68;3.67;;;;;;;;;;523558;28;1317;-65
2023/01/14 01:09:48;;;;;;;15.07;3.53;;;;;;;;;;523659;28;1918;-64
2023/01/14 01:10:03;;;;;;;14.80;3.70;;;;;;;;;;523255;28;1105;-63
2023/01/14 01:10:19;;;;;;;13.33;3.50;;;;;;;;;;523509;28;1250;-64
2023/01/14 01:10:35;;;;;;;14.40;3.40;;;;;;;;;;520440;28;1313;-64
2023/01/14 01:10:53;;;;;;;15.38;3.65;;;;;;;;;;522968;28;1113;-63
2023/01/14 01:11:08;;;;;;;16.45;3.78;;;;;;;;;;519874;28;1415;-64
2023/01/14 01:11:24;;;;;;;15.47;3.80;;;;;;;;;;521853;28;1202;-65
2023/01/14 01:11:39;;;;;;;15.75;3.75;;;;;;;;;;521130;28;1254;-64
2023/01/14 01:11:55;;;;;;;18.07;3.80;;;;;;;;;;519716;28;1192;-63
2023/01/14 01:12:10;;;;;;;17.17;3.53;;;;;;;;;;521353;28;1350;-64
2023/01/14 01:12:25;;;;;;;15.43;3.40;;;;;;;;;;520009;28;1242;-64
2023/01/14 01:12:41;;;;;;;16.57;3.90;;;;;;;;;;521093;28;1337;-64
2023/01/14 01:12:56;;;;;;;16.30;3.88;;;;;;;;;;520559;28;1322;-64
2023/01/14 01:13:13;;;;;;;15.13;3.43;;;;;;;;;;521867;28;1054;-63
2023/01/14 01:13:28;;;;;;;15.40;3.50;;;;;;;;;;518573;28;1278;-64
2023/01/14 01:13:43;;;;;;;15.23;3.53;;;;;;;;;;522142;28;1234;-64
2023/01/14 01:13:59;;;;;;;15.60;3.50;;;;;;;;;;524411;28;1210;-64
2023/01/14 01:14:14;;;;;;;17.98;3.75;;;;;;;;;;524417;28;1097;-64
2023/01/14 01:14:30;;;;;;;17.50;3.75;;;;;;;;;;523355;28;1223;-65
2023/01/14 01:14:47;;;;;;;15.47;3.60;;;;;;;;;;519569;28;1184;-65
2023/01/14 01:15:03;;;;;;;15.63;3.55;;;;;;;;;;522041;28;1221;-64
2023/01/14 01:15:18;;;;;;;15.55;3.42;;;;;;;;;;522172;28;1286;-64
2023/01/14 01:15:34;;;;;;;15.53;3.30;;;;;;;;;;524406;28;1153;-63
2023/01/14 01:15:52;;;;;;;15.68;3.47;;;;;;;;;;523078;28;1432;-64
2023/01/14 01:16:12;;;;;;;15.27;3.65;;;;;;;;;;526069;28;1207;-64
2023/01/14 01:16:27;;;;;;;17.30;3.70;;;;;;;;;;523288;28;1474;-65
2023/01/14 01:16:42;;;;;;;16.43;3.60;;;;;;;;;;526559;27;1222;-66
2023/01/14 01:16:57;;;;;;;15.23;3.27;;;;;;;;;;524395;28;1597;-64
2023/01/14 01:17:13;;;;;;;14.63;3.17;;;;;;;;;;522867;28;1313;-63
2023/01/14 01:17:28;;;;;;;13.67;3.13;;;;;;;;;;520101;28;1208;-64
2023/01/14 01:17:44;;;;;;;13.73;3.40;;;;;;;;;;520122;28;1103;-64
2023/01/14 01:17:59;;;;;;;14.70;3.80;;;;;;;;;;521829;28;966;-65
2023/01/14 01:18:15;;;;;;;15.85;3.72;;;;;;;;;;520045;28;1149;-64
2023/01/14 01:18:31;;;;;;;15.80;3.50;;;;;;;;;;520629;28;1195;-65
2023/01/14 01:18:46;;;;;;;15.50;3.50;;;;;;;;;;520307;28;1348;-65
2023/01/14 01:19:01;;;;;;;14.03;3.37;;;;;;;;;;518887;28;1221;-64
2023/01/14 01:19:17;;;;;;;13.60;3.28;;;;;;;;;;523563;28;1489;-64
2023/01/14 01:19:32;;;;;;;14.13;3.40;;;;;;;;;;523669;28;1444;-65
2023/01/14 01:19:48;;;;;;;14.67;3.53;;;;;;;;;;523917;28;1496;-65
2023/01/14 01:20:04;;;;;;;14.55;3.45;;;;;;;;;;524082;28;1129;-64
2023/01/14 01:20:19;;;;;;;17.42;3.60;;;;;;;;;;524238;28;1021;-64
2023/01/14 01:20:35;;;;;;;17.10;3.60;;;;;;;;;;525778;27;1124;-65
2023/01/14 01:20:50;;;;;;;15.05;3.40;;;;;;;;;;528068;27;1080;-64
2023/01/14 01:21:08;;;;;;;16.10;3.60;;;;;;;;;;525812;27;1250;-64
2023/01/14 01:21:24;;;;;;;16.30;3.67;;;;;;;;;;526673;27;1324;-64
2023/01/14 01:21:40;;;;;;;13.70;3.55;;;;;;;;;;527638;27;1343;-63
2023/01/14 01:21:55;;;;;;;13.67;3.27;;;;;;;;;;527954;27;1155;-64
2023/01/14 01:22:10;;;;;;;15.70;3.40;;;;;;;;;;527721;27;1435;-65
2023/01/14 01:22:25;;;;;;;15.57;3.55;;;;;;;;;;526470;27;1538;-64
2023/01/14 01:22:41;;;;;;;14.97;3.40;;;;;;;;;;525984;27;1310;-64
2023/01/14 01:22:56;;;;;;;13.93;3.40;;;;;;;;;;528119;27;1081;-64
2023/01/14 01:23:12;;;;;;;14.40;3.33;;;;;;;;;;525999;28;1355;-64
2023/01/14 01:23:27;;;;;;;17.58;3.80;;;;;;;;;;522969;28;1297;-63
2023/01/14 01:23:44;;;;;;;18.17;3.90;;;;;;;;;;520050;28;1323;-64
2023/01/14 01:23:59;;;;;;;16.23;3.58;;;;;;;;;;518299;28;1263;-64
2023/01/14 01:24:15;;;;;;;15.13;3.37;;;;;;;;;;519466;28;1196;-64
2023/01/14 01:24:30;;;;;;;15.57;3.35;;;;;;;;;;518974;28;1117;-63
2023/01/14 01:24:46;;;;;;;14.33;3.40;;;;;;;;;;517068;28;1333;-64
2023/01/14 01:25:01;;;;;;;14.65;3.60;;;;;;;;;;516733;28;1358;-64
2023/01/14 01:25:16;;;;;;;15.10;3.60;;;;;;;;;;518115;28;1082;-64
2023/01/14 01:25:32;;;;;;;14.33;3.37;;;;;;;;;;521004;28;1192;-64
2023/01/14 01:25:47;;;;;;;14.33;3.07;;;;;;;;;;522420;28;1105;-64
2023/01/14 01:26:04;;;;;;;14.60;3.13;;;;;;;;;;522526;28;1117;-64
2023/01/14 01:26:25;;;;;;;16.05;3.53;;;;;;;;;;524894;28;1153;-64
2023/01/14 01:26:40;;;;;;;17.67;3.67;;;;;;;;;;524883;27;1161;-65
2023/01/14 01:26:57;;;;;;;18.50;3.77;;;;;;;;;;525442;27;1178;-65
2023/01/14 01:27:12;;;;;;;16.65;3.40;;;;;;;;;;525771;28;1223;-65
2023/01/14 01:27:28;;;;;;;14.83;3.40;;;;;;;;;;523769;28;1472;-64
2023/01/14 01:27:43;;;;;;;13.80;3.40;;;;;;;;;;524753;28;1152;-64
2023/01/14 01:27:58;;;;;;;15.32;3.45;;;;;;;;;;523516;28;1230;-65
2023/01/14 01:28:13;;;;;;;16.37;3.67;;;;;;;;;;521752;28;1223;-63
2023/01/14 01:28:29;;;;;;;16.27;3.47;;;;;;;;;;521451;28;1172;-64
2023/01/14 01:28:51;;;;;;;16.45;3.60;;;;;;;;;;520539;28;1220;-64
2023/01/14 01:29:06;;;;;;;15.43;3.40;;;;;;;;;;521478;28;1133;-64
2023/01/14 01:29:21;;;;;;;17.10;3.77;;;;;;;;;;522470;28;1207;-64
2023/01/14 01:29:36;;;;;;;15.80;3.63;;;;;;;;;;520622;28;1278;-65
2023/01/14 01:29:53;;;;;;;12.87;3.30;;;;;;;;;;521869;28;1959;-65
2023/01/14 01:30:09;;;;;;;13.50;3.30;;;;;;;;;;522555;28;951;-65
2023/01/14 01:30:25;;;;;;;14.77;3.35;;;;;;;;;;523715;28;1199;-65
2023/01/14 01:30:41;;;;;;;15.70;3.35;;;;;;;;;;522055;28;1578;-63
2023/01/14 01:31:04;;;;;;;16.70;3.37;;;;;;;;;;521305;28;1263;-64
2023/01/14 01:31:21;;;;;;;15.93;3.55;;;;;;;;;;522484;28;1066;-63
2023/01/14 01:31:36;;;;;;;14.35;3.58;;;;;;;;;;523014;28;1405;-64
2023/01/14 01:31:51;;;;;;;13.77;3.50;;;;;;;;;;525578;28;978;-64
2023/01/14 01:32:07;;;;;;;14.80;3.30;;;;;;;;;;525148;28;1074;-64
2023/01/14 01:32:22;;;;;;;15.15;3.22;;;;;;;;;;525132;28;1358;-64
2023/01/14 01:32:37;;;;;;;15.57;3.40;;;;;;;;;;526995;27;1057;-64
2023/01/14 01:32:53;;;;;;;13.75;3.30;;;;;;;;;;527876;27;1191;-64
2023/01/14 01:33:08;;;;;;;15.20;3.57;;;;;;;;;;530635;27;1072;-64
2023/01/14 01:33:24;;;;;;;17.25;3.70;;;;;;;;;;528023;27;1441;-63
2023/01/14 01:33:39;;;;;;;16.70;3.60;;;;;;;;;;526755;27;1082;-64
2023/01/14 01:33:56;;;;;;;16.25;3.42;;;;;;;;;;528200;27;1143;-64
2023/01/14 01:34:11;;;;;;;14.32;3.17;;;;;;;;;;525081;28;1201;-63
2023/01/14 01:34:26;;;;;;;13.90;3.27;;;;;;;;;;523362;28;1078;-65
2023/01/14 01:34:41;;;;;;;15.85;3.50;;;;;;;;;;522711;28;1391;-65
2023/01/14 01:34:57;;;;;;;16.00;3.60;;;;;;;;;;523397;28;1179;-64
2023/01/14 01:35:13;;;;;;;14.85;3.70;;;;;;;;;;520964;28;1238;-64
2023/01/14 01:35:28;;;;;;;15.47;3.70;;;;;;;;;;521334;28;1192;-64
2023/01/14 01:35:43;;;;;;;15.63;3.63;;;;;;;;;;523696;28;1381;-65
2023/01/14 01:36:04;;;;;;;14.77;3.47;;;;;;;;;;522837;28;1306;-65
2023/01/14 01:36:23;;;;;;;15.95;3.35;;;;;;;;;;524717;28;1287;-64
2023/01/14 01:36:38;;;;;;;15.18;3.40;;;;;;;;;;521920;28;1249;-65
2023/01/14 01:36:53;;;;;;;14.73;3.40;;;;;;;;;;520533;28;1372;-65
2023/01/14 01:37:08;;;;;;;16.10;3.50;;;;;;;;;;520465;28;1468;-65
2023/01/14 01:37:24;;;;;;;15.83;3.40;;;;;;;;;;519602;28;1432;-64
2023/01/14 01:37:39;;;;;;;14.07;3.33;;;;;;;;;;518267;28;1239;-64
2023/01/14 01:37:54;;;;;;;12.97;3.10;;;;;;;;;;516383;28;1363;-65
2023/01/14 01:38:10;;;;;;;12.55;3.08;;;;;;;;;;519937;28;1299;-65